Terminal Aerodrome Forecast
Issued by NWS

Home | Current Version | Previous Version | Graphics & Text | Print | Product List | Glossary Off
Versions: 1 2 3 4 5 6 7 8 9 10 11 12 13 14 15 16 17 18 19 20 21 22 23 24 25

000
FTUS43 KTOP 270531 AAA
TAFMHK
TAF AMD
KMHK 270531Z 2706/2806 VRB02KT P6SM VCTS BKN006 BKN035CB
     FM271100 16007KT P6SM SCT045=

USA.gov is the U.S. government's official web portal to all federal, state and local government web resources and services.